sensor_id;sensor_type;location;lat;lon;timestamp;noise_LAeq;noise_LA_min;noise_LA_max;noise_LA01;noise_LA95
69616;Laerm;56822;52.516;4.708;2023-03-01T00:00:01;44.45;40.50;49.15;;
69616;Laerm;56822;52.516;4.708;2023-03-01T00:00:13;44.18;39.74;47.64;;
69616;Laerm;56822;52.516;4.708;2023-03-01T00:00:23;39.95;36.22;42.94;;
69616;Laerm;56822;52.516;4.708;2023-03-01T00:00:34;40.82;37.32;43.61;;
69616;Laerm;56822;52.516;4.708;2023-03-01T00:00:44;41.76;38.54;45.35;;
69616;Laerm;56822;52.516;4.708;2023-03-01T00:01:07;41.91;37.94;47.63;;
69616;Laerm;56822;52.516;4.708;2023-03-01T00:01:22;39.34;35.85;43.42;;
69616;Laerm;56822;52.516;4.708;2023-03-01T00:01:32;41.19;36.51;45.67;;
69616;Laerm;56822;52.516;4.708;2023-03-01T00:01:43;44.66;39.97;53.55;;
69616;Laerm;56822;52.516;4.708;2023-03-01T00:01:53;43.32;41.01;46.54;;
69616;Laerm;56822;52.516;4.708;2023-03-01T00:02:03;44.15;40.96;48.67;;
69616;Laerm;56822;52.516;4.708;2023-03-01T00:02:14;43.93;39.37;48.88;;
69616;Laerm;56822;52.516;4.708;2023-03-01T00:02:24;44.22;39.75;50.78;;
69616;Laerm;56822;52.516;4.708;2023-03-01T00:02:35;41.74;39.13;44.12;;
69616;Laerm;56822;52.516;4.708;2023-03-01T00:02:45;40.87;37.25;44.05;;
69616;Laerm;56822;52.516;4.708;2023-03-01T00:02:55;41.56;37.30;47.60;;
69616;Laerm;56822;52.516;4.708;2023-03-01T00:03:06;48.37;42.81;51.55;;
69616;Laerm;56822;52.516;4.708;2023-03-01T00:03:16;44.72;39.78;49.65;;
69616;Laerm;56822;52.516;4.708;2023-03-01T00:03:26;41.62;38.67;44.60;;
69616;Laerm;56822;52.516;4.708;2023-03-01T00:03:37;40.52;38.01;43.69;;
69616;Laerm;56822;52.516;4.708;2023-03-01T00:03:47;39.58;35.52;43.87;;
69616;Laerm;56822;52.516;4.708;2023-03-01T00:03:58;40.37;36.67;44.39;;
69616;Laerm;56822;52.516;4.708;2023-03-01T00:04:09;41.21;38.03;43.95;;
69616;Laerm;56822;52.516;4.708;2023-03-01T00:04:19;40.68;38.25;43.03;;
69616;Laerm;56822;52.516;4.708;2023-03-01T00:04:30;40.59;37.63;44.29;;
69616;Laerm;56822;52.516;4.708;2023-03-01T00:04:40;41.74;37.02;48.23;;
69616;Laerm;56822;52.516;4.708;2023-03-01T00:04:50;44.35;38.16;50.46;;
69616;Laerm;56822;52.516;4.708;2023-03-01T00:05:01;39.38;36.62;43.46;;
69616;Laerm;56822;52.516;4.708;2023-03-01T00:05:12;42.06;38.86;44.27;;
69616;Laerm;56822;52.516;4.708;2023-03-01T00:05:22;43.98;39.85;47.05;;
69616;Laerm;56822;52.516;4.708;2023-03-01T00:05:33;44.24;39.13;49.51;;
69616;Laerm;56822;52.516;4.708;2023-03-01T00:05:46;42.81;40.14;46.74;;
69616;Laerm;56822;52.516;4.708;2023-03-01T00:05:57;40.22;36.90;44.66;;
69616;Laerm;56822;52.516;4.708;2023-03-01T00:06:07;40.65;36.55;43.35;;
69616;Laerm;56822;52.516;4.708;2023-03-01T00:06:18;38.94;36.63;42.28;;
69616;Laerm;56822;52.516;4.708;2023-03-01T00:06:28;39.77;36.08;43.84;;
69616;Laerm;56822;52.516;4.708;2023-03-01T00:06:39;42.08;38.56;44.53;;
69616;Laerm;56822;52.516;4.708;2023-03-01T00:06:49;45.18;40.63;50.63;;
69616;Laerm;56822;52.516;4.708;2023-03-01T00:07:00;46.79;39.84;52.12;;
69616;Laerm;56822;52.516;4.708;2023-03-01T00:07:10;42.38;38.72;46.36;;
69616;Laerm;56822;52.516;4.708;2023-03-01T00:07:20;42.03;38.35;46.00;;
69616;Laerm;56822;52.516;4.708;2023-03-01T00:07:31;42.50;37.93;47.88;;
69616;Laerm;56822;52.516;4.708;2023-03-01T00:07:41;44.90;42.00;49.15;;
69616;Laerm;56822;52.516;4.708;2023-03-01T00:07:54;42.36;39.85;45.49;;
69616;Laerm;56822;52.516;4.708;2023-03-01T00:08:05;43.84;39.99;48.54;;
69616;Laerm;56822;52.516;4.708;2023-03-01T00:08:15;41.57;38.24;47.88;;
69616;Laerm;56822;52.516;4.708;2023-03-01T00:08:26;39.36;37.13;41.45;;
69616;Laerm;56822;52.516;4.708;2023-03-01T00:08:36;40.00;37.20;42.69;;
69616;Laerm;56822;52.516;4.708;2023-03-01T00:08:47;39.44;36.39;42.63;;
69616;Laerm;56822;52.516;4.708;2023-03-01T00:08:57;40.78;37.19;44.49;;
69616;Laerm;56822;52.516;4.708;2023-03-01T00:09:08;42.03;39.05;44.63;;
69616;Laerm;56822;52.516;4.708;2023-03-01T00:09:18;43.05;39.32;47.10;;
69616;Laerm;56822;52.516;4.708;2023-03-01T00:09:29;45.04;41.45;49.17;;
69616;Laerm;56822;52.516;4.708;2023-03-01T00:09:39;41.91;36.94;45.64;;
69616;Laerm;56822;52.516;4.708;2023-03-01T00:09:50;40.46;37.96;43.15;;
69616;Laerm;56822;52.516;4.708;2023-03-01T00:10:00;39.62;36.12;42.63;;
69616;Laerm;56822;52.516;4.708;2023-03-01T00:10:10;40.70;37.72;43.21;;
69616;Laerm;56822;52.516;4.708;2023-03-01T00:10:21;41.39;38.11;44.88;;
69616;Laerm;56822;52.516;4.708;2023-03-01T00:10:31;41.46;37.30;44.38;;
69616;Laerm;56822;52.516;4.708;2023-03-01T00:10:42;41.77;38.76;44.47;;
69616;Laerm;56822;52.516;4.708;2023-03-01T00:11:15;43.09;38.74;47.78;;
69616;Laerm;56822;52.516;4.708;2023-03-01T00:11:27;46.89;44.02;50.13;;
69616;Laerm;56822;52.516;4.708;2023-03-01T00:11:38;46.89;43.85;49.27;;
69616;Laerm;56822;52.516;4.708;2023-03-01T00:11:48;48.26;43.88;52.93;;
69616;Laerm;56822;52.516;4.708;2023-03-01T00:11:59;46.89;43.43;49.61;;
69616;Laerm;56822;52.516;4.708;2023-03-01T00:12:09;42.82;40.40;47.09;;
69616;Laerm;56822;52.516;4.708;2023-03-01T00:12:20;43.82;40.95;47.12;;
69616;Laerm;56822;52.516;4.708;2023-03-01T00:12:31;45.45;42.46;49.75;;
69616;Laerm;56822;52.516;4.708;2023-03-01T00:12:41;44.52;41.24;48.44;;
69616;Laerm;56822;52.516;4.708;2023-03-01T00:12:51;43.24;40.07;47.54;;
69616;Laerm;56822;52.516;4.708;2023-03-01T00:13:02;40.89;37.99;43.72;;
69616;Laerm;56822;52.516;4.708;2023-03-01T00:13:12;40.78;37.58;43.62;;
69616;Laerm;56822;52.516;4.708;2023-03-01T00:13:22;43.52;40.52;48.55;;
69616;Laerm;56822;52.516;4.708;2023-03-01T00:13:33;42.91;39.36;45.97;;
69616;Laerm;56822;52.516;4.708;2023-03-01T00:13:44;40.12;36.52;44.14;;
69616;Laerm;56822;52.516;4.708;2023-03-01T00:13:56;41.11;37.02;45.23;;
69616;Laerm;56822;52.516;4.708;2023-03-01T00:14:06;44.45;39.05;50.03;;
69616;Laerm;56822;52.516;4.708;2023-03-01T00:14:17;43.75;36.28;48.02;;
69616;Laerm;56822;52.516;4.708;2023-03-01T00:14:27;38.73;34.92;43.15;;
69616;Laerm;56822;52.516;4.708;2023-03-01T00:14:37;39.71;32.59;43.43;;
69616;Laerm;56822;52.516;4.708;2023-03-01T00:14:48;38.75;34.88;41.18;;
69616;Laerm;56822;52.516;4.708;2023-03-01T00:14:58;39.72;36.84;43.24;;
69616;Laerm;56822;52.516;4.708;2023-03-01T00:15:08;40.72;36.34;45.39;;
69616;Laerm;56822;52.516;4.708;2023-03-01T00:15:19;40.43;37.24;43.21;;
69616;Laerm;56822;52.516;4.708;2023-03-01T00:15:29;40.44;37.28;44.44;;
69616;Laerm;56822;52.516;4.708;2023-03-01T00:15:40;45.60;40.29;53.88;;
69616;Laerm;56822;52.516;4.708;2023-03-01T00:15:51;45.33;42.46;49.58;;
69616;Laerm;56822;52.516;4.708;2023-03-01T00:16:06;47.09;42.15;51.77;;
69616;Laerm;56822;52.516;4.708;2023-03-01T00:16:21;47.27;42.17;50.94;;
69616;Laerm;56822;52.516;4.708;2023-03-01T00:16:32;43.44;39.09;46.78;;
69616;Laerm;56822;52.516;4.708;2023-03-01T00:16:43;40.75;37.12;43.59;;
69616;Laerm;56822;52.516;4.708;2023-03-01T00:16:54;41.09;37.45;45.67;;
69616;Laerm;56822;52.516;4.708;2023-03-01T00:17:04;40.53;36.84;44.49;;
69616;Laerm;56822;52.516;4.708;2023-03-01T00:17:14;39.98;37.02;45.55;;
69616;Laerm;56822;52.516;4.708;2023-03-01T00:17:25;40.19;35.47;45.56;;
69616;Laerm;56822;52.516;4.708;2023-03-01T00:17:35;40.70;37.79;43.73;;
69616;Laerm;56822;52.516;4.708;2023-03-01T00:17:45;40.83;37.97;43.72;;
69616;Laerm;56822;52.516;4.708;2023-03-01T00:17:56;42.96;39.30;47.03;;
69616;Laerm;56822;52.516;4.708;2023-03-01T00:18:07;45.30;41.28;49.74;;
69616;Laerm;56822;52.516;4.708;2023-03-01T00:18:18;45.28;39.19;51.65;;
69616;Laerm;56822;52.516;4.708;2023-03-01T00:18:28;42.85;37.30;48.93;;
69616;Laerm;56822;52.516;4.708;2023-03-01T00:18:39;41.71;37.83;44.53;;
69616;Laerm;56822;52.516;4.708;2023-03-01T00:18:49;44.08;40.72;47.71;;
69616;Laerm;56822;52.516;4.708;2023-03-01T00:19:00;45.63;41.72;50.88;;
69616;Laerm;56822;52.516;4.708;2023-03-01T00:19:12;43.36;37.50;47.68;;
69616;Laerm;56822;52.516;4.708;2023-03-01T00:19:23;38.91;35.74;41.88;;
69616;Laerm;56822;52.516;4.708;2023-03-01T00:19:33;41.06;38.19;43.70;;
69616;Laerm;56822;52.516;4.708;2023-03-01T00:19:44;44.25;39.36;47.41;;
69616;Laerm;56822;52.516;4.708;2023-03-01T00:19:54;46.26;42.87;49.26;;
69616;Laerm;56822;52.516;4.708;2023-03-01T00:20:04;47.70;44.29;52.97;;
69616;Laerm;56822;52.516;4.708;2023-03-01T00:20:20;46.08;40.12;51.63;;
69616;Laerm;56822;52.516;4.708;2023-03-01T00:20:30;41.60;37.33;44.85;;
69616;Laerm;56822;52.516;4.708;2023-03-01T00:20:40;39.40;37.33;41.54;;
69616;Laerm;56822;52.516;4.708;2023-03-01T00:20:51;41.52;38.51;44.17;;
69616;Laerm;56822;52.516;4.708;2023-03-01T00:21:02;41.63;38.68;44.37;;
69616;Laerm;56822;52.516;4.708;2023-03-01T00:21:12;40.50;37.53;45.15;;
69616;Laerm;56822;52.516;4.708;2023-03-01T00:21:23;42.84;38.76;47.33;;
69616;Laerm;56822;52.516;4.708;2023-03-01T00:21:33;40.72;35.97;51.82;;
69616;Laerm;56822;52.516;4.708;2023-03-01T00:21:45;38.71;34.89;44.52;;
69616;Laerm;56822;52.516;4.708;2023-03-01T00:21:56;42.49;36.97;49.06;;
69616;Laerm;56822;52.516;4.708;2023-03-01T00:22:06;42.71;38.20;55.22;;
69616;Laerm;56822;52.516;4.708;2023-03-01T00:22:16;41.88;38.60;44.61;;
69616;Laerm;56822;52.516;4.708;2023-03-01T00:22:27;43.38;40.32;45.75;;
69616;Laerm;56822;52.516;4.708;2023-03-01T00:22:38;46.30;41.89;51.14;;
69616;Laerm;56822;52.516;4.708;2023-03-01T00:22:48;46.50;42.15;53.97;;
69616;Laerm;56822;52.516;4.708;2023-03-01T00:22:58;45.69;42.16;49.75;;
69616;Laerm;56822;52.516;4.708;2023-03-01T00:23:09;43.30;39.65;47.04;;
69616;Laerm;56822;52.516;4.708;2023-03-01T00:23:19;42.34;39.46;44.82;;
69616;Laerm;56822;52.516;4.708;2023-03-01T00:23:30;43.23;40.42;45.93;;
69616;Laerm;56822;52.516;4.708;2023-03-01T00:23:40;43.88;40.73;47.38;;
69616;Laerm;56822;52.516;4.708;2023-03-01T00:23:51;46.59;42.70;51.20;;
69616;Laerm;56822;52.516;4.708;2023-03-01T00:24:01;47.67;43.75;53.28;;
69616;Laerm;56822;52.516;4.708;2023-03-01T00:24:11;46.18;42.63;50.07;;
69616;Laerm;56822;52.516;4.708;2023-03-01T00:24:22;47.51;42.41;53.88;;
69616;Laerm;56822;52.516;4.708;2023-03-01T00:24:32;41.63;39.30;45.02;;
69616;Laerm;56822;52.516;4.708;2023-03-01T00:24:42;41.00;37.99;44.39;;
69616;Laerm;56822;52.516;4.708;2023-03-01T00:24:53;42.25;39.22;46.23;;
69616;Laerm;56822;52.516;4.708;2023-03-01T00:25:03;42.75;38.97;46.03;;
69616;Laerm;56822;52.516;4.708;2023-03-01T00:25:14;43.71;38.71;50.53;;
69616;Laerm;56822;52.516;4.708;2023-03-01T00:25:24;43.17;38.71;47.11;;
69616;Laerm;56822;52.516;4.708;2023-03-01T00:25:40;46.90;41.98;51.44;;
69616;Laerm;56822;52.516;4.708;2023-03-01T00:25:50;46.71;42.96;51.39;;
69616;Laerm;56822;52.516;4.708;2023-03-01T00:26:01;45.29;38.59;49.57;;
69616;Laerm;56822;52.516;4.708;2023-03-01T00:26:12;42.60;38.77;45.99;;
69616;Laerm;56822;52.516;4.708;2023-03-01T00:26:24;44.40;41.44;47.98;;
69616;Laerm;56822;52.516;4.708;2023-03-01T00:26:34;46.92;43.42;50.25;;
69616;Laerm;56822;52.516;4.708;2023-03-01T00:26:45;49.01;45.34;52.05;;
69616;Laerm;56822;52.516;4.708;2023-03-01T00:26:56;45.68;40.49;49.01;;
69616;Laerm;56822;52.516;4.708;2023-03-01T00:27:06;44.00;40.39;47.09;;
69616;Laerm;56822;52.516;4.708;2023-03-01T00:27:17;41.97;38.99;46.24;;
69616;Laerm;56822;52.516;4.708;2023-03-01T00:27:28;43.76;40.80;46.47;;
69616;Laerm;56822;52.516;4.708;2023-03-01T00:27:38;43.78;39.93;46.50;;
69616;Laerm;56822;52.516;4.708;2023-03-01T00:27:48;46.21;41.39;50.29;;
69616;Laerm;56822;52.516;4.708;2023-03-01T00:27:59;44.95;41.42;48.20;;
69616;Laerm;56822;52.516;4.708;2023-03-01T00:28:09;47.32;40.92;53.08;;
69616;Laerm;56822;52.516;4.708;2023-03-01T00:28:20;45.30;40.88;50.41;;
69616;Laerm;56822;52.516;4.708;2023-03-01T00:28:31;41.69;37.16;45.62;;
69616;Laerm;56822;52.516;4.708;2023-03-01T00:28:41;45.15;39.82;51.31;;
69616;Laerm;56822;52.516;4.708;2023-03-01T00:28:52;41.58;37.59;47.38;;
69616;Laerm;56822;52.516;4.708;2023-03-01T00:29:03;41.32;34.33;45.36;;
69616;Laerm;56822;52.516;4.708;2023-03-01T00:29:13;38.36;35.77;41.12;;
69616;Laerm;56822;52.516;4.708;2023-03-01T00:29:24;40.03;37.34;43.17;;
69616;Laerm;56822;52.516;4.708;2023-03-01T00:29:34;38.64;34.29;42.00;;
69616;Laerm;56822;52.516;4.708;2023-03-01T00:29:45;37.01;34.34;39.93;;
69616;Laerm;56822;52.516;4.708;2023-03-01T00:29:55;40.03;36.01;44.62;;
69616;Laerm;56822;52.516;4.708;2023-03-01T00:30:05;40.90;36.90;44.40;;
69616;Laerm;56822;52.516;4.708;2023-03-01T00:30:16;51.09;38.46;64.81;;
69616;Laerm;56822;52.516;4.708;2023-03-01T00:30:26;48.64;37.66;64.61;;
69616;Laerm;56822;52.516;4.708;2023-03-01T00:30:37;38.96;35.82;42.18;;
69616;Laerm;56822;52.516;4.708;2023-03-01T00:30:47;41.75;37.74;47.02;;
69616;Laerm;56822;52.516;4.708;2023-03-01T00:31:04;41.07;35.28;46.89;;
69616;Laerm;56822;52.516;4.708;2023-03-01T00:31:16;37.44;33.82;42.59;;
69616;Laerm;56822;52.516;4.708;2023-03-01T00:31:28;36.28;33.70;39.26;;
69616;Laerm;56822;52.516;4.708;2023-03-01T00:31:39;36.08;33.76;38.27;;
69616;Laerm;56822;52.516;4.708;2023-03-01T00:31:49;37.10;34.35;40.66;;
69616;Laerm;56822;52.516;4.708;2023-03-01T00:32:00;41.39;38.15;45.17;;
69616;Laerm;56822;52.516;4.708;2023-03-01T00:32:10;41.79;38.03;45.10;;
69616;Laerm;56822;52.516;4.708;2023-03-01T00:32:20;40.04;36.13;43.75;;
69616;Laerm;56822;52.516;4.708;2023-03-01T00:32:31;43.36;38.05;48.21;;
69616;Laerm;56822;52.516;4.708;2023-03-01T00:32:41;41.17;38.67;46.78;;
69616;Laerm;56822;52.516;4.708;2023-03-01T00:32:51;41.49;37.96;45.90;;
69616;Laerm;56822;52.516;4.708;2023-03-01T00:33:02;40.92;37.76;44.90;;
69616;Laerm;56822;52.516;4.708;2023-03-01T00:33:12;42.48;39.53;45.23;;
69616;Laerm;56822;52.516;4.708;2023-03-01T00:33:22;41.50;38.19;44.74;;
69616;Laerm;56822;52.516;4.708;2023-03-01T00:33:33;43.26;40.04;46.84;;
69616;Laerm;56822;52.516;4.708;2023-03-01T00:33:43;45.29;42.06;48.99;;
69616;Laerm;56822;52.516;4.708;2023-03-01T00:33:54;41.79;36.44;46.13;;
69616;Laerm;56822;52.516;4.708;2023-03-01T00:34:08;36.79;33.73;39.10;;
69616;Laerm;56822;52.516;4.708;2023-03-01T00:34:19;39.03;35.77;44.10;;
69616;Laerm;56822;52.516;4.708;2023-03-01T00:34:29;42.64;36.37;46.69;;
69616;Laerm;56822;52.516;4.708;2023-03-01T00:34:39;45.13;42.57;47.93;;
69616;Laerm;56822;52.516;4.708;2023-03-01T00:34:50;45.39;41.79;48.08;;
69616;Laerm;56822;52.516;4.708;2023-03-01T00:35:04;40.24;36.14;44.23;;
69616;Laerm;56822;52.516;4.708;2023-03-01T00:35:15;37.85;34.87;41.77;;
69616;Laerm;56822;52.516;4.708;2023-03-01T00:35:26;39.31;36.38;42.56;;
69616;Laerm;56822;52.516;4.708;2023-03-01T00:35:36;39.87;36.29;45.59;;
69616;Laerm;56822;52.516;4.708;2023-03-01T00:35:46;41.60;36.61;46.08;;
69616;Laerm;56822;52.516;4.708;2023-03-01T00:35:59;43.08;37.42;46.46;;
69616;Laerm;56822;52.516;4.708;2023-03-01T00:36:10;41.62;37.69;45.09;;
69616;Laerm;56822;52.516;4.708;2023-03-01T00:36:21;40.86;33.75;46.05;;
69616;Laerm;56822;52.516;4.708;2023-03-01T00:36:32;37.29;33.63;43.21;;
69616;Laerm;56822;52.516;4.708;2023-03-01T00:36:43;43.69;35.92;48.67;;
69616;Laerm;56822;52.516;4.708;2023-03-01T00:36:54;41.05;38.53;45.70;;
69616;Laerm;56822;52.516;4.708;2023-03-01T00:37:04;42.60;39.78;46.06;;
69616;Laerm;56822;52.516;4.708;2023-03-01T00:37:15;42.81;40.45;46.63;;
69616;Laerm;56822;52.516;4.708;2023-03-01T00:37:25;41.18;38.11;45.32;;
69616;Laerm;56822;52.516;4.708;2023-03-01T00:37:35;40.26;38.03;42.41;;
69616;Laerm;56822;52.516;4.708;2023-03-01T00:37:46;42.98;39.18;46.28;;
69616;Laerm;56822;52.516;4.708;2023-03-01T00:37:57;43.30;38.80;50.01;;
69616;Laerm;56822;52.516;4.708;2023-03-01T00:38:07;42.51;38.34;47.45;;
69616;Laerm;56822;52.516;4.708;2023-03-01T00:38:18;42.11;38.95;46.07;;
69616;Laerm;56822;52.516;4.708;2023-03-01T00:38:28;43.40;40.76;45.83;;
69616;Laerm;56822;52.516;4.708;2023-03-01T00:38:40;44.59;40.62;48.91;;
69616;Laerm;56822;52.516;4.708;2023-03-01T00:38:51;46.15;43.15;49.19;;
69616;Laerm;56822;52.516;4.708;2023-03-01T00:39:02;45.82;40.04;50.65;;
69616;Laerm;56822;52.516;4.708;2023-03-01T00:39:14;41.71;38.64;44.50;;
69616;Laerm;56822;52.516;4.708;2023-03-01T00:39:25;42.15;39.05;45.32;;
69616;Laerm;56822;52.516;4.708;2023-03-01T00:39:35;40.65;37.79;43.95;;
69616;Laerm;56822;52.516;4.708;2023-03-01T00:39:45;41.19;38.16;44.22;;
69616;Laerm;56822;52.516;4.708;2023-03-01T00:39:56;41.05;38.28;44.16;;
69616;Laerm;56822;52.516;4.708;2023-03-01T00:40:06;42.73;40.30;45.20;;
69616;Laerm;56822;52.516;4.708;2023-03-01T00:40:17;45.65;41.53;52.28;;
69616;Laerm;56822;52.516;4.708;2023-03-01T00:40:27;41.19;36.48;47.91;;
69616;Laerm;56822;52.516;4.708;2023-03-01T00:40:38;41.46;35.71;45.58;;
69616;Laerm;56822;52.516;4.708;2023-03-01T00:40:48;40.36;35.75;44.47;;
69616;Laerm;56822;52.516;4.708;2023-03-01T00:41:05;37.30;34.55;39.96;;
69616;Laerm;56822;52.516;4.708;2023-03-01T00:41:16;37.44;33.54;42.49;;
69616;Laerm;56822;52.516;4.708;2023-03-01T00:41:27;39.86;34.96;44.92;;
69616;Laerm;56822;52.516;4.708;2023-03-01T00:41:37;39.07;33.90;43.81;;
69616;Laerm;56822;52.516;4.708;2023-03-01T00:41:47;34.11;32.13;36.02;;
69616;Laerm;56822;52.516;4.708;2023-03-01T00:41:58;37.08;32.88;44.88;;
69616;Laerm;56822;52.516;4.708;2023-03-01T00:42:08;39.32;35.76;45.50;;
69616;Laerm;56822;52.516;4.708;2023-03-01T00:42:18;40.78;36.37;46.48;;
69616;Laerm;56822;52.516;4.708;2023-03-01T00:42:29;39.25;35.40;42.37;;
69616;Laerm;56822;52.516;4.708;2023-03-01T00:42:39;36.57;34.90;38.54;;
69616;Laerm;56822;52.516;4.708;2023-03-01T00:42:49;38.35;34.61;40.94;;
69616;Laerm;56822;52.516;4.708;2023-03-01T00:43:00;38.47;35.27;42.98;;
69616;Laerm;56822;52.516;4.708;2023-03-01T00:43:10;37.62;35.01;40.52;;
69616;Laerm;56822;52.516;4.708;2023-03-01T00:43:21;42.10;37.55;45.67;;
69616;Laerm;56822;52.516;4.708;2023-03-01T00:43:31;41.37;37.26;47.65;;
69616;Laerm;56822;52.516;4.708;2023-03-01T00:43:46;46.10;40.50;53.67;;
69616;Laerm;56822;52.516;4.708;2023-03-01T00:43:56;38.30;34.34;44.99;;
69616;Laerm;56822;52.516;4.708;2023-03-01T00:44:07;34.70;32.55;36.77;;
69616;Laerm;56822;52.516;4.708;2023-03-01T00:44:17;34.43;32.01;37.02;;
69616;Laerm;56822;52.516;4.708;2023-03-01T00:44:27;34.05;32.30;35.80;;
69616;Laerm;56822;52.516;4.708;2023-03-01T00:44:38;36.36;33.21;39.65;;
69616;Laerm;56822;52.516;4.708;2023-03-01T00:44:48;36.29;33.76;39.30;;
69616;Laerm;56822;52.516;4.708;2023-03-01T00:44:59;39.21;34.68;43.33;;
69616;Laerm;56822;52.516;4.708;2023-03-01T00:45:09;43.73;38.30;48.48;;
69616;Laerm;56822;52.516;4.708;2023-03-01T00:45:19;47.20;41.56;50.89;;
69616;Laerm;56822;52.516;4.708;2023-03-01T00:45:30;42.17;38.43;45.70;;
69616;Laerm;56822;52.516;4.708;2023-03-01T00:45:41;44.60;39.81;50.05;;
69616;Laerm;56822;52.516;4.708;2023-03-01T00:45:51;41.33;37.21;47.02;;
69616;Laerm;56822;52.516;4.708;2023-03-01T00:46:02;41.34;37.60;47.12;;
69616;Laerm;56822;52.516;4.708;2023-03-01T00:46:15;42.63;39.10;47.00;;
69616;Laerm;56822;52.516;4.708;2023-03-01T00:46:26;44.19;39.48;49.34;;
69616;Laerm;56822;52.516;4.708;2023-03-01T00:46:37;49.07;45.16;53.51;;
69616;Laerm;56822;52.516;4.708;2023-03-01T00:46:47;48.23;44.14;51.91;;
69616;Laerm;56822;52.516;4.708;2023-03-01T00:46:57;41.14;36.08;48.71;;
69616;Laerm;56822;52.516;4.708;2023-03-01T00:47:08;41.14;35.39;46.03;;
69616;Laerm;56822;52.516;4.708;2023-03-01T00:47:18;45.53;42.06;48.27;;
69616;Laerm;56822;52.516;4.708;2023-03-01T00:47:29;42.84;39.69;47.49;;
69616;Laerm;56822;52.516;4.708;2023-03-01T00:47:39;42.23;39.45;45.76;;
69616;Laerm;56822;52.516;4.708;2023-03-01T00:47:49;43.88;39.74;48.83;;
69616;Laerm;56822;52.516;4.708;2023-03-01T00:48:00;47.00;42.25;51.47;;
69616;Laerm;56822;52.516;4.708;2023-03-01T00:48:10;40.18;36.39;46.82;;
69616;Laerm;56822;52.516;4.708;2023-03-01T00:48:21;38.65;35.14;42.77;;
69616;Laerm;56822;52.516;4.708;2023-03-01T00:48:31;39.67;36.07;43.25;;
69616;Laerm;56822;52.516;4.708;2023-03-01T00:48:42;38.11;35.80;40.76;;
69616;Laerm;56822;52.516;4.708;2023-03-01T00:48:53;40.52;36.69;43.69;;
69616;Laerm;56822;52.516;4.708;2023-03-01T00:49:03;43.15;36.99;47.99;;
69616;Laerm;56822;52.516;4.708;2023-03-01T00:49:14;36.86;34.36;40.13;;
69616;Laerm;56822;52.516;4.708;2023-03-01T00:49:24;36.99;34.41;45.05;;
69616;Laerm;56822;52.516;4.708;2023-03-01T00:49:37;37.73;33.73;41.41;;
69616;Laerm;56822;52.516;4.708;2023-03-01T00:49:47;38.72;35.00;42.52;;
69616;Laerm;56822;52.516;4.708;2023-03-01T00:49:58;45.03;39.62;49.77;;
69616;Laerm;56822;52.516;4.708;2023-03-01T00:50:08;48.50;44.88;54.53;;
69616;Laerm;56822;52.516;4.708;2023-03-01T00:50:19;48.20;37.08;55.71;;
69616;Laerm;56822;52.516;4.708;2023-03-01T00:50:30;38.69;35.90;41.76;;
69616;Laerm;56822;52.516;4.708;2023-03-01T00:50:40;37.42;34.71;40.59;;
69616;Laerm;56822;52.516;4.708;2023-03-01T00:50:50;38.83;35.58;42.75;;
69616;Laerm;56822;52.516;4.708;2023-03-01T00:51:04;41.82;36.75;46.29;;
69616;Laerm;56822;52.516;4.708;2023-03-01T00:51:16;43.13;35.52;48.78;;
69616;Laerm;56822;52.516;4.708;2023-03-01T00:51:27;39.69;35.92;43.20;;
69616;Laerm;56822;52.516;4.708;2023-03-01T00:51:38;41.80;37.39;44.50;;
69616;Laerm;56822;52.516;4.708;2023-03-01T00:51:51;43.71;40.42;47.74;;
69616;Laerm;56822;52.516;4.708;2023-03-01T00:52:01;41.22;36.84;45.83;;
69616;Laerm;56822;52.516;4.708;2023-03-01T00:52:12;44.02;39.24;50.46;;
69616;Laerm;56822;52.516;4.708;2023-03-01T00:52:22;43.75;39.45;47.19;;
69616;Laerm;56822;52.516;4.708;2023-03-01T00:52:32;44.00;41.26;47.47;;
69616;Laerm;56822;52.516;4.708;2023-03-01T00:52:42;45.73;41.15;49.12;;
69616;Laerm;56822;52.516;4.708;2023-03-01T00:52:53;41.78;38.79;45.02;;
69616;Laerm;56822;52.516;4.708;2023-03-01T00:53:04;40.10;35.61;44.19;;
69616;Laerm;56822;52.516;4.708;2023-03-01T00:53:15;42.10;38.07;47.28;;
69616;Laerm;56822;52.516;4.708;2023-03-01T00:53:25;45.23;39.00;49.86;;
69616;Laerm;56822;52.516;4.708;2023-03-01T00:53:35;38.87;36.46;42.60;;
69616;Laerm;56822;52.516;4.708;2023-03-01T00:53:46;43.94;37.47;54.07;;
69616;Laerm;56822;52.516;4.708;2023-03-01T00:53:58;46.35;42.98;52.03;;
69616;Laerm;56822;52.516;4.708;2023-03-01T00:54:09;46.21;37.44;53.46;;
69616;Laerm;56822;52.516;4.708;2023-03-01T00:54:19;42.32;38.20;46.24;;
69616;Laerm;56822;52.516;4.708;2023-03-01T00:54:29;43.76;40.74;47.10;;
69616;Laerm;56822;52.516;4.708;2023-03-01T00:54:39;46.54;42.71;50.59;;
69616;Laerm;56822;52.516;4.708;2023-03-01T00:54:51;46.65;43.29;51.34;;
69616;Laerm;56822;52.516;4.708;2023-03-01T00:55:02;46.76;39.51;52.19;;
69616;Laerm;56822;52.516;4.708;2023-03-01T00:55:12;41.81;36.91;46.61;;
69616;Laerm;56822;52.516;4.708;2023-03-01T00:55:23;40.06;35.33;45.18;;
69616;Laerm;56822;52.516;4.708;2023-03-01T00:55:34;39.79;35.80;42.22;;
69616;Laerm;56822;52.516;4.708;2023-03-01T00:55:45;42.02;37.74;46.06;;
69616;Laerm;56822;52.516;4.708;2023-03-01T00:55:56;44.17;37.82;49.03;;
69616;Laerm;56822;52.516;4.708;2023-03-01T00:56:08;40.51;35.92;45.61;;
69616;Laerm;56822;52.516;4.708;2023-03-01T00:56:18;44.92;40.82;48.97;;
69616;Laerm;56822;52.516;4.708;2023-03-01T00:56:29;40.31;36.85;45.74;;
69616;Laerm;56822;52.516;4.708;2023-03-01T00:56:39;40.77;36.85;45.23;;
69616;Laerm;56822;52.516;4.708;2023-03-01T00:56:50;42.48;38.69;46.37;;
69616;Laerm;56822;52.516;4.708;2023-03-01T00:57:00;45.17;40.96;48.20;;
69616;Laerm;56822;52.516;4.708;2023-03-01T00:57:10;48.02;40.70;51.74;;
69616;Laerm;56822;52.516;4.708;2023-03-01T00:57:21;39.71;36.62;42.85;;
69616;Laerm;56822;52.516;4.708;2023-03-01T00:57:31;42.93;38.54;46.80;;
69616;Laerm;56822;52.516;4.708;2023-03-01T00:57:42;44.81;39.29;48.78;;
69616;Laerm;56822;52.516;4.708;2023-03-01T00:57:52;42.70;39.13;47.33;;
69616;Laerm;56822;52.516;4.708;2023-03-01T00:58:02;46.53;39.37;51.37;;
69616;Laerm;56822;52.516;4.708;2023-03-01T00:58:13;39.36;35.75;43.74;;
69616;Laerm;56822;52.516;4.708;2023-03-01T00:58:23;38.61;34.73;42.27;;
69616;Laerm;56822;52.516;4.708;2023-03-01T00:58:34;38.75;35.50;43.51;;
69616;Laerm;56822;52.516;4.708;2023-03-01T00:58:45;41.18;37.56;45.72;;
69616;Laerm;56822;52.516;4.708;2023-03-01T00:58:55;45.23;39.95;51.68;;
69616;Laerm;56822;52.516;4.708;2023-03-01T00:59:05;42.34;35.72;52.23;;
69616;Laerm;56822;52.516;4.708;2023-03-01T00:59:16;39.07;34.57;43.37;;
69616;Laerm;56822;52.516;4.708;2023-03-01T00:59:26;45.39;41.79;48.78;;
69616;Laerm;56822;52.516;4.708;2023-03-01T00:59:36;45.89;41.47;49.01;;
69616;Laerm;56822;52.516;4.708;2023-03-01T00:59:47;46.80;43.22;49.55;;
69616;Laerm;56822;52.516;4.708;2023-03-01T00:59:57;47.08;41.95;49.57;;
69616;Laerm;56822;52.516;4.708;2023-03-01T01:00:07;44.62;40.42;50.22;;
69616;Laerm;56822;52.516;4.708;2023-03-01T01:00:19;42.08;38.91;45.55;;
69616;Laerm;56822;52.516;4.708;2023-03-01T01:00:30;44.92;42.60;47.22;;
69616;Laerm;56822;52.516;4.708;2023-03-01T01:00:40;47.00;43.29;50.19;;